Time;durP1;ratioP1;P1;durP2;ratioP2;P2;SDS_P1;SDS_P2;PMS_P1;PMS_P2;Temp;Humidity;BMP_temperature;BMP_pressure;BME280_temperature;BME280_humidity;BME280_pressure;Samples;Min_cycle;Max_cycle;Signal;HPM_P1;HPM_P2
2022/04/25 00:00:56;;;;;;;21.13;18.40;;;10.20;99.90;;;;;;5015563;28;20252;-69
2022/04/25 00:03:21;;;;;;;18.80;16.70;;;10.30;99.90;;;;;;5012518;28;20683;-70
2022/04/25 00:05:47;;;;;;;19.53;17.53;;;10.30;99.90;;;;;;5012569;28;20515;-69
2022/04/25 00:08:12;;;;;;;19.77;17.40;;;10.30;99.90;;;;;;5013488;28;20711;-69
2022/04/25 00:10:38;;;;;;;24.13;21.73;;;10.30;99.90;;;;;;5013319;28;20262;-70
2022/04/25 00:13:04;;;;;;;17.50;15.70;;;10.20;99.90;;;;;;5015688;28;20190;-69
2022/04/25 00:15:29;;;;;;;20.53;18.40;;;10.20;99.90;;;;;;5012192;28;20191;-70
2022/04/25 00:17:55;;;;;;;20.03;17.93;;;10.30;99.90;;;;;;5012651;28;20656;-69
2022/04/25 00:20:20;;;;;;;22.93;17.80;;;10.30;99.90;;;;;;5010749;28;20183;-70
2022/04/25 00:22:46;;;;;;;20.33;18.20;;;10.30;99.90;;;;;;5004891;28;20179;-70
2022/04/25 00:25:12;;;;;;;21.53;19.40;;;10.30;99.90;;;;;;5010828;28;20210;-70
2022/04/25 00:27:38;;;;;;;20.07;18.00;;;10.30;99.90;;;;;;5019826;28;20220;-70
2022/04/25 00:30:04;;;;;;;20.60;18.43;;;10.30;99.90;;;;;;5007642;28;20859;-69
2022/04/25 00:32:30;;;;;;;20.47;18.03;;;10.30;99.90;;;;;;5013730;28;20241;-69
2022/04/25 00:34:55;;;;;;;22.07;19.87;;;10.30;99.90;;;;;;5010400;28;20461;-70
2022/04/25 00:37:21;;;;;;;20.43;18.43;;;10.30;99.90;;;;;;5010300;28;20268;-70
2022/04/25 00:39:46;;;;;;;20.93;18.80;;;10.40;99.90;;;;;;5009787;28;20532;-70
2022/04/25 00:42:12;;;;;;;22.00;19.77;;;10.30;99.90;;;;;;5010008;28;20648;-69
2022/04/25 00:44:38;;;;;;;24.93;22.13;;;10.30;99.90;;;;;;5020765;28;20210;-70
2022/04/25 00:47:04;;;;;;;25.23;22.53;;;10.40;99.90;;;;;;5015807;28;20258;-70
2022/04/25 00:49:30;;;;;;;25.07;22.47;;;10.40;99.90;;;;;;5014049;28;20660;-70
2022/04/25 00:51:56;;;;;;;25.13;22.53;;;10.30;99.90;;;;;;5020164;28;21020;-70
2022/04/25 00:54:22;;;;;;;26.17;23.47;;;10.30;99.90;;;;;;5014223;28;20492;-70
2022/04/25 00:56:49;;;;;;;26.47;23.67;;;10.30;99.90;;;;;;5020188;28;20179;-70
2022/04/25 00:59:16;;;;;;;27.03;24.10;;;10.30;99.90;;;;;;5013456;28;20474;-69
2022/04/25 01:01:42;;;;;;;26.83;24.13;;;10.30;99.90;;;;;;5017708;28;20551;-70
2022/04/25 01:04:08;;;;;;;28.77;25.77;;;10.20;99.90;;;;;;5013501;28;20462;-70
2022/04/25 01:06:34;;;;;;;26.00;23.30;;;10.20;99.90;;;;;;5011930;28;20446;-69
2022/04/25 01:08:59;;;;;;;26.07;23.57;;;10.30;99.90;;;;;;5013403;28;20951;-70
2022/04/25 01:11:25;;;;;;;29.13;26.00;;;10.10;99.90;;;;;;5018584;28;20666;-70
2022/04/25 01:13:50;;;;;;;27.77;24.97;;;10.10;99.90;;;;;;5012594;28;20235;-70
2022/04/25 01:16:16;;;;;;;27.63;24.20;;;10.10;99.90;;;;;;5019913;28;20183;-69
2022/04/25 01:18:41;;;;;;;27.27;24.47;;;10.20;99.90;;;;;;5012683;28;20210;-70
2022/04/25 01:21:11;;;;;;;27.57;24.73;;;10.10;99.90;;;;;;5021775;28;20186;-69
2022/04/25 01:29:06;;;;;;;27.10;24.20;;;10.00;99.90;;;;;;5018781;28;20471;-69
2022/04/25 01:31:32;;;;;;;26.07;23.57;;;9.90;99.90;;;;;;5014403;28;20438;-70
2022/04/25 01:33:57;;;;;;;27.30;24.60;;;10.00;99.90;;;;;;5012352;28;20465;-69
2022/04/25 01:36:24;;;;;;;26.70;24.10;;;10.00;99.90;;;;;;5013997;28;20644;-70
2022/04/25 01:38:53;;;;;;;27.13;24.33;;;10.00;99.90;;;;;;5019531;28;20743;-69
2022/04/25 01:41:19;;;;;;;29.10;26.20;;;9.80;99.90;;;;;;5011642;28;21022;-70
2022/04/25 01:43:45;;;;;;;29.13;25.27;;;9.80;99.90;;;;;;5021509;28;20543;-69
2022/04/25 01:46:11;;;;;;;28.77;25.90;;;9.80;99.90;;;;;;5012132;28;20201;-69
2022/04/25 01:48:36;;;;;;;28.87;25.87;;;9.80;99.90;;;;;;5019319;28;20949;-69
2022/04/25 01:51:03;;;;;;;30.00;26.73;;;9.80;99.90;;;;;;5012010;28;20556;-69
2022/04/25 01:53:29;;;;;;;27.57;24.83;;;9.80;99.90;;;;;;5024323;28;20624;-69
2022/04/25 01:55:55;;;;;;;28.33;25.33;;;9.80;99.90;;;;;;5011307;28;20433;-69
2022/04/25 01:58:21;;;;;;;36.13;27.90;;;9.80;99.90;;;;;;5020492;28;20837;-70
2022/04/25 02:00:46;;;;;;;28.57;25.70;;;9.70;99.90;;;;;;5007906;28;20437;-69
2022/04/25 02:03:12;;;;;;;28.43;25.43;;;9.70;99.90;;;;;;5019687;28;20194;-69
2022/04/25 02:05:38;;;;;;;30.07;26.70;;;9.60;99.90;;;;;;5011763;28;20405;-69
2022/04/25 02:08:04;;;;;;;30.23;27.07;;;9.60;99.90;;;;;;5011763;28;20533;-70
2022/04/25 02:10:30;;;;;;;31.70;28.50;;;9.60;99.90;;;;;;5015516;28;20524;-70
2022/04/25 02:12:55;;;;;;;30.23;27.13;;;9.60;99.90;;;;;;5017532;28;20194;-69
2022/04/25 02:15:21;;;;;;;31.90;28.33;;;9.60;99.90;;;;;;5014035;28;20182;-70
2022/04/25 02:17:46;;;;;;;28.30;25.30;;;9.50;99.90;;;;;;5011446;28;20206;-69
2022/04/25 02:20:13;;;;;;;28.73;25.80;;;9.50;99.90;;;;;;5015123;28;20174;-69
2022/04/25 02:22:39;;;;;;;31.40;28.10;;;9.50;99.90;;;;;;5011098;28;20237;-69
2022/04/25 02:25:05;;;;;;;30.83;27.30;;;9.40;99.90;;;;;;5014565;28;21010;-70
2022/04/25 02:27:31;;;;;;;31.03;27.93;;;9.30;99.90;;;;;;5016539;28;20429;-71
2022/04/25 02:29:57;;;;;;;31.83;28.53;;;9.20;99.90;;;;;;5019981;28;20438;-71
2022/04/25 02:32:30;;;;;;;29.53;26.50;;;9.10;99.90;;;;;;5015230;28;20218;-70
2022/04/25 02:34:56;;;;;;;32.53;28.97;;;9.00;99.90;;;;;;5020326;28;20464;-71
2022/04/25 02:37:23;;;;;;;32.20;28.70;;;9.00;99.90;;;;;;5013157;28;20461;-71
2022/04/25 02:39:49;;;;;;;28.17;25.17;;;9.00;99.90;;;;;;5019567;28;20434;-71
2022/04/25 02:42:16;;;;;;;31.30;27.37;;;9.00;99.90;;;;;;5012843;28;20841;-71
2022/04/25 02:44:41;;;;;;;33.87;27.33;;;9.00;99.90;;;;;;5013680;28;20904;-69
2022/04/25 02:47:08;;;;;;;32.67;29.00;;;9.00;99.90;;;;;;5013785;28;20468;-71
2022/04/25 02:49:34;;;;;;;34.83;29.30;;;8.90;99.90;;;;;;5011649;28;20442;-70
2022/04/25 02:52:00;;;;;;;32.27;28.97;;;8.90;99.90;;;;;;5014518;28;20438;-70
2022/04/25 02:54:25;;;;;;;33.50;27.90;;;8.90;99.90;;;;;;5018882;28;20222;-70
2022/04/25 02:56:50;;;;;;;33.07;27.20;;;8.80;99.90;;;;;;5012361;28;20194;-70
2022/04/25 02:59:16;;;;;;;33.37;29.73;;;8.80;99.90;;;;;;5017519;28;20214;-70
2022/04/25 03:01:42;;;;;;;35.03;30.27;;;8.70;99.90;;;;;;5013807;28;20178;-71
2022/04/25 03:04:08;;;;;;;29.90;26.70;;;8.70;99.90;;;;;;5015891;28;20206;-70
2022/04/25 03:06:33;;;;;;;32.00;28.50;;;8.60;99.90;;;;;;5012236;28;20187;-69
2022/04/25 03:08:59;;;;;;;32.87;29.43;;;8.50;99.90;;;;;;5019122;28;20442;-71
2022/04/25 03:11:25;;;;;;;32.50;28.97;;;8.40;99.90;;;;;;5011055;28;20555;-70
2022/04/25 03:13:52;;;;;;;34.50;30.30;;;8.50;99.90;;;;;;5017991;28;20202;-70
2022/04/25 03:16:19;;;;;;;35.83;29.47;;;8.40;99.90;;;;;;5018854;28;20193;-71
2022/04/25 03:18:45;;;;;;;31.07;27.70;;;8.50;99.90;;;;;;5018803;28;20892;-71
2022/04/25 03:21:10;;;;;;;35.23;27.30;;;8.50;99.90;;;;;;5011901;28;20437;-71
2022/04/25 03:23:36;;;;;;;30.30;27.00;;;8.40;99.90;;;;;;5018605;28;20523;-71
2022/04/25 03:26:01;;;;;;;36.80;30.73;;;8.30;99.90;;;;;;5010563;28;20667;-70
2022/04/25 03:28:27;;;;;;;29.53;26.53;;;8.20;99.90;;;;;;5007980;28;20189;-69
2022/04/25 03:30:52;;;;;;;33.83;30.23;;;8.20;99.90;;;;;;5009564;28;20258;-71
2022/04/25 03:33:19;;;;;;;30.67;27.27;;;8.20;99.90;;;;;;5011918;28;20205;-70
2022/04/25 03:35:48;;;;;;;34.50;28.40;;;8.40;99.90;;;;;;5011644;28;20171;-70
2022/04/25 03:38:17;;;;;;;34.87;31.13;;;8.40;99.90;;;;;;5016009;28;20477;-71
2022/04/25 03:40:43;;;;;;;30.33;27.03;;;8.40;99.90;;;;;;5011138;28;20438;-70
2022/04/25 03:43:09;;;;;;;31.90;26.90;;;8.50;99.90;;;;;;5013125;28;20434;-70
2022/04/25 03:45:35;;;;;;;29.83;26.73;;;8.60;99.90;;;;;;5012785;28;20864;-70
2022/04/25 03:48:02;;;;;;;28.30;25.23;;;8.60;99.90;;;;;;5015615;28;20521;-70
2022/04/25 03:50:28;;;;;;;29.60;26.40;;;8.60;99.90;;;;;;5011021;28;20852;-71
2022/04/25 03:52:54;;;;;;;30.80;26.30;;;8.60;99.90;;;;;;5018016;28;20563;-69
2022/04/25 03:58:05;;;;;;;30.90;27.73;;;8.60;99.90;;;;;;5013104;28;20205;-71
2022/04/25 04:00:32;;;;;;;29.40;25.00;;;8.50;99.90;;;;;;5012234;28;20434;-70
2022/04/25 04:02:58;;;;;;;30.30;26.13;;;8.50;99.90;;;;;;5019046;28;20497;-70
2022/04/25 04:05:24;;;;;;;29.93;26.73;;;8.50;99.90;;;;;;5019665;28;20525;-71
2022/04/25 04:07:50;;;;;;;30.63;27.30;;;8.50;99.90;;;;;;5018228;28;20524;-71
2022/04/25 04:10:17;;;;;;;29.27;25.70;;;8.50;99.90;;;;;;5011262;28;20442;-70
2022/04/25 04:12:46;;;;;;;30.77;26.70;;;8.50;99.90;;;;;;5012502;28;20179;-70
2022/04/25 04:15:13;;;;;;;31.80;27.37;;;8.40;99.90;;;;;;5011475;28;20845;-70
2022/04/25 04:17:39;;;;;;;30.43;26.43;;;8.30;99.90;;;;;;5018758;28;20460;-71
2022/04/25 04:20:05;;;;;;;29.07;25.93;;;8.40;99.90;;;;;;5009589;28;20453;-71
2022/04/25 04:22:31;;;;;;;31.53;28.07;;;8.50;99.90;;;;;;5011959;28;20516;-70
2022/04/25 04:25:12;;;;;;;28.33;24.93;;;8.60;99.90;;;;;;5022474;28;20481;-70
2022/04/25 04:27:42;;;;;;;53.10;38.07;;;8.60;99.90;;;;;;5013731;28;20736;-71
2022/04/25 04:30:10;;;;;;;41.40;33.57;;;8.60;99.90;;;;;;5008675;28;20492;-70
2022/04/25 04:32:38;;;;;;;30.93;27.47;;;8.60;99.90;;;;;;5014588;28;20437;-71
2022/04/25 04:35:06;;;;;;;31.43;26.93;;;8.60;99.90;;;;;;5028168;28;20484;-71
2022/04/25 04:37:34;;;;;;;29.77;25.70;;;8.70;99.90;;;;;;5016221;28;20461;-70
2022/04/25 04:42:45;;;;;;;27.50;24.50;;;8.70;99.90;;;;;;5016700;28;20469;-70
2022/04/25 04:45:11;;;;;;;29.23;26.23;;;8.80;99.90;;;;;;5025797;28;20957;-71
2022/04/25 04:47:39;;;;;;;27.77;24.80;;;8.90;99.90;;;;;;5013822;28;20262;-71
2022/04/25 04:50:07;;;;;;;27.40;23.63;;;8.90;99.90;;;;;;5021978;28;20434;-70
2022/04/25 04:52:33;;;;;;;31.17;26.00;;;8.90;99.90;;;;;;5014881;28;20882;-69
2022/04/25 04:54:58;;;;;;;27.70;24.80;;;9.00;99.90;;;;;;5021502;28;20459;-69
2022/04/25 04:57:24;;;;;;;28.07;24.50;;;9.00;99.90;;;;;;5015132;28;20556;-71
2022/04/25 04:59:50;;;;;;;33.73;28.10;;;9.10;99.90;;;;;;5013551;28;20183;-71
2022/04/25 05:02:17;;;;;;;30.93;27.30;;;9.20;99.90;;;;;;5014646;28;20530;-70
2022/04/25 05:04:43;;;;;;;29.73;26.27;;;9.30;99.90;;;;;;5019473;28;20279;-71
2022/04/25 05:07:09;;;;;;;30.40;27.10;;;9.20;99.90;;;;;;5030947;28;20946;-70
2022/04/25 05:09:35;;;;;;;31.57;26.20;;;9.00;99.90;;;;;;5021721;28;20445;-71
2022/04/25 05:12:01;;;;;;;31.40;28.10;;;9.10;99.90;;;;;;5025848;28;20184;-70
2022/04/25 05:14:26;;;;;;;32.37;28.00;;;9.00;99.90;;;;;;5017825;28;20202;-70
2022/04/25 05:16:52;;;;;;;28.80;25.80;;;9.00;99.90;;;;;;5029801;28;20179;-71
2022/04/25 05:19:17;;;;;;;30.93;27.60;;;9.10;99.90;;;;;;5017152;28;20203;-70
2022/04/25 05:21:43;;;;;;;28.37;25.43;;;9.20;99.90;;;;;;5020312;28;20178;-70
2022/04/25 05:24:09;;;;;;;28.90;25.83;;;9.40;99.90;;;;;;5021888;28;20221;-70
2022/04/25 05:26:34;;;;;;;28.47;25.37;;;9.50;99.90;;;;;;5019724;28;20177;-71
2022/04/25 05:29:00;;;;;;;29.90;26.57;;;9.60;99.90;;;;;;5020009;28;20441;-71
2022/04/25 05:31:25;;;;;;;30.53;27.20;;;9.60;99.90;;;;;;5012898;28;20293;-70
2022/04/25 05:33:51;;;;;;;33.33;26.80;;;9.50;99.90;;;;;;5009334;28;20649;-71
2022/04/25 05:36:17;;;;;;;29.97;26.80;;;9.50;99.90;;;;;;5011326;28;20556;-71
2022/04/25 05:38:43;;;;;;;28.97;25.87;;;9.70;99.90;;;;;;5012009;28;20457;-71
2022/04/25 05:41:09;;;;;;;31.20;27.30;;;9.90;99.90;;;;;;5014067;28;20183;-71
2022/04/25 05:43:36;;;;;;;29.80;26.90;;;10.10;99.90;;;;;;5018138;28;20203;-71
2022/04/25 05:46:03;;;;;;;32.33;27.10;;;10.20;99.90;;;;;;5009780;28;20448;-71
2022/04/25 05:53:57;;;;;;;32.33;28.80;;;10.50;99.90;;;;;;5012034;28;20515;-71
2022/04/25 05:56:22;;;;;;;34.77;30.77;;;10.60;99.90;;;;;;5010471;28;20433;-71
2022/04/25 05:58:48;;;;;;;32.20;28.77;;;10.60;99.90;;;;;;5013221;28;20206;-71
2022/04/25 06:01:13;;;;;;;33.20;29.80;;;10.70;99.90;;;;;;5019182;28;20191;-70
2022/04/25 06:03:39;;;;;;;31.37;26.07;;;10.80;99.90;;;;;;5022216;28;20207;-71
2022/04/25 06:06:04;;;;;;;35.53;27.87;;;10.80;99.90;;;;;;5022663;28;20635;-71
2022/04/25 06:08:30;;;;;;;30.80;27.50;;;10.90;99.90;;;;;;5016219;28;20289;-71
2022/04/25 06:10:55;;;;;;;29.87;26.87;;;10.90;99.90;;;;;;5016164;28;20574;-71
2022/04/25 06:13:21;;;;;;;31.60;28.40;;;11.00;99.90;;;;;;5012526;28;20206;-69
2022/04/25 06:15:46;;;;;;;31.07;27.83;;;11.10;99.90;;;;;;5011259;28;20187;-71
2022/04/25 06:18:12;;;;;;;29.73;26.67;;;11.20;99.90;;;;;;5012381;28;20222;-68
2022/04/25 06:20:37;;;;;;;29.63;26.63;;;11.30;99.90;;;;;;5011757;28;20760;-71
2022/04/25 06:23:03;;;;;;;31.07;27.90;;;11.40;99.90;;;;;;5011603;28;20214;-71
2022/04/25 06:25:29;;;;;;;27.80;24.90;;;11.70;99.90;;;;;;5010496;28;20191;-70
2022/04/25 06:27:57;;;;;;;27.67;24.77;;;12.10;99.90;;;;;;5009082;28;20186;-70
2022/04/25 06:30:24;;;;;;;24.87;22.47;;;12.50;99.90;;;;;;5014429;28;20773;-71
2022/04/25 06:32:50;;;;;;;25.13;22.60;;;12.70;99.90;;;;;;5023628;28;20440;-71
2022/04/25 06:35:16;;;;;;;25.57;22.80;;;12.90;99.90;;;;;;5023643;28;20436;-71
2022/04/25 06:37:41;;;;;;;25.37;23.00;;;13.00;99.90;;;;;;5020150;28;20457;-70
2022/04/25 06:40:08;;;;;;;25.83;23.40;;;13.10;99.90;;;;;;5019155;28;20197;-70
2022/04/25 06:42:33;;;;;;;22.60;20.40;;;13.20;99.90;;;;;;5015470;28;20184;-71
2022/04/25 06:44:59;;;;;;;23.67;21.37;;;13.30;99.90;;;;;;5023664;28;20504;-70
2022/04/25 06:47:24;;;;;;;25.03;22.63;;;13.30;99.90;;;;;;4996207;28;20191;-69
2022/04/25 06:49:51;;;;;;;23.63;21.50;;;13.70;99.90;;;;;;4994932;28;20182;-70
2022/04/25 06:52:17;;;;;;;23.97;21.57;;;14.10;99.90;;;;;;5007209;28;20174;-71
2022/04/25 06:54:42;;;;;;;23.53;21.27;;;14.40;99.90;;;;;;5010477;28;20461;-71
2022/04/25 06:57:08;;;;;;;23.93;21.67;;;14.20;99.90;;;;;;5007627;28;20183;-71
2022/04/25 06:59:34;;;;;;;22.23;20.10;;;14.10;99.90;;;;;;5004170;28;20187;-71
2022/04/25 07:02:00;;;;;;;22.00;19.90;;;13.90;99.90;;;;;;5007447;28;20179;-71
2022/04/25 07:04:26;;;;;;;25.17;22.53;;;13.40;99.90;;;;;;5006752;28;20685;-69
2022/04/25 07:06:51;;;;;;;20.97;18.97;;;13.30;99.90;;;;;;5004093;28;20437;-71
2022/04/25 07:09:17;;;;;;;22.17;20.07;;;13.40;99.90;;;;;;5002884;28;20274;-70
2022/04/25 07:11:44;;;;;;;20.20;18.33;;;13.40;99.90;;;;;;5006685;28;20282;-67
2022/04/25 07:14:14;;;;;;;23.20;20.90;;;13.40;99.90;;;;;;5009555;28;20211;-67
2022/04/25 07:16:44;;;;;;;25.83;23.20;;;13.50;99.90;;;;;;5005421;28;21237;-70
2022/04/25 07:19:11;;;;;;;21.83;19.83;;;13.40;99.90;;;;;;5007920;28;20535;-70
2022/04/25 07:29:48;;;;;;;20.53;18.53;;;14.00;99.90;;;;;;5000543;28;20456;-70
2022/04/25 07:32:15;;;;;;;20.47;18.50;;;14.10;99.90;;;;;;5003599;28;20479;-70
2022/04/25 07:34:41;;;;;;;19.07;17.50;;;14.00;99.90;;;;;;5003296;28;20249;-69
2022/04/25 07:37:07;;;;;;;20.57;18.63;;;13.90;99.90;;;;;;5006780;28;20473;-70
2022/04/25 07:39:32;;;;;;;21.00;19.00;;;13.90;99.90;;;;;;5001450;28;20472;-70
2022/04/25 07:41:58;;;;;;;19.60;17.80;;;13.80;99.90;;;;;;5005583;28;20237;-71
2022/04/25 07:44:25;;;;;;;19.60;17.73;;;13.70;99.90;;;;;;5005331;28;20218;-69
2022/04/25 07:46:50;;;;;;;20.27;18.33;;;13.70;99.90;;;;;;5005137;28;20203;-69
2022/04/25 07:49:16;;;;;;;19.17;17.57;;;13.80;99.90;;;;;;5004025;28;20481;-69
2022/04/25 07:51:41;;;;;;;21.70;19.23;;;13.90;99.90;;;;;;5007124;28;20198;-70
2022/04/25 07:54:08;;;;;;;20.40;18.50;;;14.00;99.90;;;;;;5007755;28;20226;-69
2022/04/25 07:56:34;;;;;;;19.17;17.20;;;14.00;99.90;;;;;;5003860;28;20554;-70
2022/04/25 07:59:00;;;;;;;19.77;18.00;;;14.00;99.90;;;;;;5015545;28;20461;-70
2022/04/25 08:01:29;;;;;;;20.47;18.67;;;14.00;99.90;;;;;;5010864;28;20499;-70
2022/04/25 08:03:55;;;;;;;18.70;17.00;;;14.10;99.90;;;;;;5011157;28;20198;-70
2022/04/25 08:06:21;;;;;;;18.23;16.67;;;14.10;99.90;;;;;;5011302;28;21034;-70
2022/04/25 08:08:49;;;;;;;19.43;17.70;;;14.20;99.90;;;;;;5009307;28;20520;-71
2022/04/25 08:11:14;;;;;;;18.50;16.80;;;14.30;99.90;;;;;;5007636;28;20217;-70
2022/04/25 08:19:08;;;;;;;19.40;17.70;;;15.70;99.90;;;;;;5012168;28;20476;-69
2022/04/25 08:21:33;;;;;;;21.00;19.00;;;15.50;99.90;;;;;;5012230;28;20446;-69
2022/04/25 08:23:59;;;;;;;20.40;18.50;;;15.10;99.90;;;;;;5011558;28;20218;-68
2022/04/25 08:26:26;;;;;;;19.50;17.90;;;15.40;99.90;;;;;;5009328;28;20190;-68
2022/04/25 08:28:52;;;;;;;20.90;19.00;;;15.40;99.90;;;;;;5015840;28;20209;-68
2022/04/25 08:31:17;;;;;;;19.90;18.13;;;14.80;99.90;;;;;;5009633;28;20787;-68
2022/04/25 08:33:43;;;;;;;19.10;17.30;;;14.80;99.90;;;;;;5009316;28;20209;-68
2022/04/25 08:36:09;;;;;;;20.40;18.53;;;15.00;99.90;;;;;;5008545;28;20194;-68
2022/04/25 08:38:34;;;;;;;19.73;17.90;;;15.20;99.90;;;;;;5011825;28;20836;-68
2022/04/25 08:41:00;;;;;;;20.50;18.60;;;15.30;99.90;;;;;;5009751;28;20190;-68
2022/04/25 08:43:27;;;;;;;19.93;17.90;;;15.40;99.90;;;;;;5010902;28;20206;-68
2022/04/25 08:45:55;;;;;;;19.80;17.93;;;15.40;99.90;;;;;;5008407;28;20477;-68
2022/04/25 08:48:21;;;;;;;18.50;16.93;;;15.20;99.90;;;;;;5017990;28;20546;-69
2022/04/25 08:50:49;;;;;;;19.80;18.00;;;15.30;99.90;;;;;;5012489;28;20632;-69
2022/04/25 08:53:15;;;;;;;18.00;16.30;;;15.20;99.90;;;;;;5014698;28;20465;-69
2022/04/25 08:55:41;;;;;;;18.73;17.13;;;15.20;99.90;;;;;;5012612;28;20445;-69
2022/04/25 08:58:07;;;;;;;17.27;15.87;;;15.20;99.90;;;;;;5018274;28;20985;-69
2022/04/25 09:00:33;;;;;;;18.70;17.20;;;15.20;99.90;;;;;;5011068;28;20331;-69
2022/04/25 09:02:59;;;;;;;20.07;17.27;;;15.10;99.90;;;;;;5010985;28;20528;-69
2022/04/25 09:05:25;;;;;;;18.33;16.63;;;14.90;99.90;;;;;;5011802;28;20175;-68
2022/04/25 09:07:52;;;;;;;18.70;17.10;;;14.70;99.90;;;;;;5011901;28;20450;-69
2022/04/25 09:10:20;;;;;;;17.03;15.60;;;14.90;99.90;;;;;;5009398;28;20441;-69
2022/04/25 09:12:47;;;;;;;17.17;15.87;;;15.10;99.90;;;;;;5013868;28;20820;-69
2022/04/25 09:15:16;;;;;;;17.77;16.27;;;15.00;99.90;;;;;;5015446;28;20472;-69
2022/04/25 09:17:42;;;;;;;18.87;17.37;;;14.70;99.90;;;;;;5014710;28;20523;-69
2022/04/25 09:20:09;;;;;;;20.47;18.53;;;14.30;99.90;;;;;;5010550;28;20461;-69
2022/04/25 09:22:37;;;;;;;18.13;16.53;;;14.20;99.90;;;;;;5011530;28;20214;-69
2022/04/25 09:25:13;;;;;;;18.67;17.10;;;14.10;99.90;;;;;;5012685;28;20473;-69
2022/04/25 09:27:41;;;;;;;18.07;16.47;;;14.10;99.90;;;;;;5023733;28;20432;-69
2022/04/25 09:30:16;;;;;;;18.70;16.80;;;14.10;99.90;;;;;;5020144;28;20939;-69
2022/04/25 09:32:43;;;;;;;18.70;16.90;;;14.10;99.90;;;;;;5010778;28;20484;-69
2022/04/25 09:35:25;;;;;;;20.50;18.70;;;14.30;99.90;;;;;;5013809;28;20738;-69
2022/04/25 09:37:51;;;;;;;20.33;18.30;;;14.50;99.90;;;;;;5010431;28;20556;-69
2022/04/25 09:40:21;;;;;;;19.87;18.07;;;14.90;99.90;;;;;;5014149;28;20910;-69
2022/04/25 09:43:02;;;;;;;24.33;22.20;;;15.30;99.90;;;;;;5006508;28;20183;-69
2022/04/25 09:45:27;;;;;;;21.97;20.10;;;15.90;99.90;;;;;;5015407;28;20437;-69
2022/04/25 09:47:55;;;;;;;20.33;18.53;;;16.60;99.90;;;;;;5011685;28;20519;-69
2022/04/25 09:50:21;;;;;;;20.30;18.60;;;17.30;99.90;;;;;;5010962;28;20191;-69
2022/04/25 09:52:58;;;;;;;20.40;18.70;;;18.10;99.90;;;;;;5017249;28;20939;-69
2022/04/25 09:55:27;;;;;;;21.13;19.23;;;19.10;99.90;;;;;;5012345;28;20689;-69
2022/04/25 09:57:53;;;;;;;19.33;17.77;;;20.00;99.90;;;;;;5011553;28;20573;-70
2022/04/25 10:00:33;;;;;;;19.30;17.80;;;20.20;99.90;;;;;;5009516;28;20438;-70
2022/04/25 10:03:02;;;;;;;18.33;16.93;;;19.90;99.50;;;;;;5009935;28;20533;-70
2022/04/25 10:05:45;;;;;;;17.90;16.50;;;19.50;99.90;;;;;;5013570;28;20683;-70
2022/04/25 10:08:12;;;;;;;18.80;17.30;;;19.90;99.90;;;;;;5029774;28;20424;-69
2022/04/25 10:10:46;;;;;;;27.83;25.23;;;19.50;99.90;;;;;;5033442;28;20475;-69
2022/04/25 10:13:12;;;;;;;19.30;17.70;;;19.10;99.90;;;;;;5033140;28;20523;-69
2022/04/25 10:15:39;;;;;;;19.50;17.90;;;19.20;99.90;;;;;;5033462;28;20428;-70
2022/04/25 10:18:06;;;;;;;18.83;17.23;;;19.20;99.90;;;;;;5027361;28;20457;-73
2022/04/25 10:20:34;;;;;;;19.20;17.20;;;19.10;99.90;;;;;;5011935;28;20461;-69
2022/04/25 10:23:01;;;;;;;18.67;17.17;;;19.00;99.90;;;;;;5012969;28;20483;-68
2022/04/25 10:25:27;;;;;;;20.70;18.90;;;18.90;99.90;;;;;;5011886;28;20434;-69
2022/04/25 10:27:53;;;;;;;17.27;15.57;;;19.00;99.90;;;;;;5024732;28;20424;-68
2022/04/25 10:30:20;;;;;;;18.03;16.53;;;19.00;99.90;;;;;;5032777;28;20174;-69
2022/04/25 10:32:46;;;;;;;18.60;16.90;;;19.20;99.90;;;;;;5033172;28;20524;-69
2022/04/25 10:35:31;;;;;;;20.37;18.67;;;19.00;99.90;;;;;;5032769;28;20516;-69
2022/04/25 10:37:56;;;;;;;17.10;15.50;;;18.50;99.90;;;;;;5005176;28;20215;-69
2022/04/25 10:46:13;;;;;;;18.53;17.03;;;18.60;99.90;;;;;;5029625;28;20945;-69
2022/04/25 10:49:07;;;;;;;18.17;16.30;;;18.40;99.90;;;;;;5025969;28;20429;-69
2022/04/25 10:51:38;;;;;;;18.23;16.67;;;18.50;99.90;;;;;;5012699;28;20198;-69
2022/04/25 10:54:05;;;;;;;19.40;17.90;;;18.90;99.90;;;;;;5029353;28;20455;-69
2022/04/25 10:56:32;;;;;;;17.63;16.23;;;18.80;99.90;;;;;;5010993;28;20429;-69
2022/04/25 10:59:22;;;;;;;20.87;19.10;;;18.70;99.90;;;;;;5009023;28;20454;-69
2022/04/25 11:01:49;;;;;;;17.10;15.70;;;18.50;99.90;;;;;;5009579;28;20429;-69
2022/04/25 11:04:15;;;;;;;17.77;16.27;;;18.60;99.90;;;;;;5009284;28;20462;-69
2022/04/25 11:06:41;;;;;;;16.83;15.53;;;18.50;99.90;;;;;;5011016;28;20449;-69
2022/04/25 11:09:06;;;;;;;16.63;15.27;;;18.60;99.90;;;;;;5010275;28;20934;-69
2022/04/25 11:11:53;;;;;;;17.63;16.13;;;18.00;99.90;;;;;;5010903;28;20445;-69
2022/04/25 11:14:19;;;;;;;22.13;19.30;;;18.20;99.90;;;;;;5016436;28;20388;-69
2022/04/25 11:17:13;;;;;;;16.23;14.93;;;17.40;99.90;;;;;;5014442;28;20438;-68
2022/04/25 11:19:56;;;;;;;17.43;15.93;;;17.10;99.90;;;;;;5008364;28;20605;-69
2022/04/25 11:22:53;;;;;;;17.97;16.53;;;16.80;99.90;;;;;;5011797;28;20429;-68
2022/04/25 11:25:25;;;;;;;21.17;19.17;;;16.70;99.90;;;;;;4992289;28;20462;-68
2022/04/25 11:28:09;;;;;;;16.17;14.77;;;16.70;99.90;;;;;;5010631;28;20703;-68
2022/04/25 11:30:35;;;;;;;14.77;13.67;;;16.40;99.90;;;;;;5008865;28;20449;-68
2022/04/25 11:33:12;;;;;;;15.57;14.13;;;16.20;99.90;;;;;;5019173;28;20445;-68
2022/04/25 11:35:39;;;;;;;16.33;15.03;;;16.20;99.90;;;;;;5011159;28;20451;-68
2022/04/25 11:38:05;;;;;;;17.90;16.30;;;15.80;99.90;;;;;;5009262;28;20461;-68
2022/04/25 11:40:31;;;;;;;19.10;17.27;;;15.40;99.90;;;;;;5008860;28;20473;-69
2022/04/25 11:42:59;;;;;;;19.97;18.17;;;15.00;99.90;;;;;;5007067;28;20862;-68
2022/04/25 11:45:25;;;;;;;20.40;18.50;;;14.60;99.90;;;;;;5008022;28;20578;-68
2022/04/25 11:47:51;;;;;;;22.77;20.60;;;14.30;99.90;;;;;;5014617;28;20437;-68
2022/04/25 11:50:20;;;;;;;21.10;19.10;;;14.00;99.90;;;;;;5011026;28;20452;-68
2022/04/25 11:52:50;;;;;;;21.90;19.90;;;13.90;99.90;;;;;;5008568;28;20208;-68
2022/04/25 11:55:18;;;;;;;25.77;23.00;;;13.70;99.90;;;;;;5005665;28;20967;-68
2022/04/25 11:57:45;;;;;;;25.77;23.20;;;13.70;99.90;;;;;;5006767;28;20531;-69
2022/04/25 12:00:19;;;;;;;21.33;19.30;;;13.70;99.90;;;;;;5008178;28;20446;-68
2022/04/25 12:02:45;;;;;;;25.07;22.60;;;13.70;99.90;;;;;;5008773;28;20951;-68
2022/04/25 12:05:12;;;;;;;24.60;22.27;;;13.60;99.90;;;;;;5010484;28;20458;-68
2022/04/25 12:15:34;;;;;;;24.47;22.27;;;13.60;99.90;;;;;;5010643;28;21034;-68
2022/04/25 12:15:56;;;;;;;25.27;22.77;;;13.50;99.90;;;;;;5010781;28;21915;-68
2022/04/25 12:18:32;;;;;;;26.60;22.50;;;13.60;99.90;;;;;;5009725;28;20457;-68
2022/04/25 12:21:08;;;;;;;23.63;21.33;;;13.70;99.90;;;;;;5006971;28;20270;-68
2022/04/25 12:23:39;;;;;;;22.33;20.23;;;13.80;99.90;;;;;;5006592;28;20473;-68
2022/04/25 12:26:08;;;;;;;24.07;21.67;;;13.80;99.90;;;;;;5008655;28;21012;-68
2022/04/25 12:28:38;;;;;;;22.40;20.33;;;13.80;99.90;;;;;;5008092;28;21000;-68
2022/04/25 12:31:08;;;;;;;23.60;21.20;;;13.80;99.90;;;;;;5000229;28;20524;-68
2022/04/25 12:33:41;;;;;;;21.60;19.47;;;14.20;99.90;;;;;;5008802;28;20617;-68
2022/04/25 12:36:15;;;;;;;21.53;19.57;;;14.20;99.90;;;;;;5006786;28;20528;-68
2022/04/25 12:38:50;;;;;;;21.90;18.30;;;14.10;99.90;;;;;;5008727;28;20515;-68
2022/04/25 12:41:24;;;;;;;18.73;17.13;;;14.40;99.90;;;;;;5008998;28;20524;-68
2022/04/25 12:43:53;;;;;;;19.23;17.63;;;14.70;99.90;;;;;;5008622;28;20491;-68
2022/04/25 12:46:34;;;;;;;19.30;17.60;;;14.90;99.90;;;;;;5014085;28;21008;-68
2022/04/25 12:49:05;;;;;;;17.40;15.70;;;14.80;99.90;;;;;;5012366;28;20864;-68
2022/04/25 12:51:42;;;;;;;16.67;15.17;;;14.90;99.90;;;;;;5012192;28;20953;-68
2022/04/25 12:54:46;;;;;;;17.37;15.77;;;14.90;99.90;;;;;;5014675;28;20582;-68
2022/04/25 12:57:18;;;;;;;19.33;16.60;;;14.80;99.90;;;;;;5008030;28;20445;-68
2022/04/25 12:59:45;;;;;;;20.67;17.67;;;15.20;99.90;;;;;;5010474;28;20445;-68
2022/04/25 13:02:14;;;;;;;16.33;14.90;;;15.30;99.90;;;;;;5018506;28;20441;-69
2022/04/25 13:04:57;;;;;;;14.17;13.03;;;15.60;99.90;;;;;;5010548;28;20548;-68
2022/04/25 13:07:28;;;;;;;13.10;11.80;;;15.70;99.90;;;;;;5016656;28;20980;-68
2022/04/25 13:09:56;;;;;;;12.63;11.53;;;15.80;99.90;;;;;;5012059;28;21006;-69
2022/04/25 13:12:24;;;;;;;10.00;9.20;;;16.40;99.90;;;;;;5013121;28;20556;-69
2022/04/25 13:14:49;;;;;;;9.73;8.93;;;17.00;99.90;;;;;;5004240;28;20519;-68